Time;durP1;ratioP1;P1;durP2;ratioP2;P2;SDS_P1;SDS_P2;PMS_P1;PMS_P2;Temp;Humidity;BMP_temperature;BMP_pressure;BME280_temperature;BME280_humidity;BME280_pressure;Samples;Min_cycle;Max_cycle;Signal;HPM_P1;HPM_P2
2022/04/21 00:00:52;;;;;;;22.00;14.85;;;;;;;9.61;48.02;95108.72;5029601;28;20193;-60
2022/04/21 00:03:19;;;;;;;19.77;14.38;;;;;;;9.95;46.93;95110.94;5030029;28;20205;-50
2022/04/21 00:05:46;;;;;;;21.17;14.70;;;;;;;9.90;46.89;95104.88;5029793;28;20189;-55
2022/04/21 00:08:16;;;;;;;18.38;13.80;;;;;;;9.34;47.90;95116.50;5030054;28;20215;-54
2022/04/21 00:10:44;;;;;;;17.73;13.88;;;;;;;9.06;48.69;95122.66;5029024;28;20213;-55
2022/04/21 00:13:11;;;;;;;18.13;14.02;;;;;;;9.39;47.88;95111.34;5030254;28;20197;-51
2022/04/21 00:15:39;;;;;;;18.40;13.85;;;;;;;9.10;47.94;95113.28;5029693;28;20193;-57
2022/04/21 00:18:06;;;;;;;16.83;13.85;;;;;;;8.99;48.15;95105.56;5029378;28;20240;-56
2022/04/21 00:20:34;;;;;;;17.92;13.93;;;;;;;8.54;49.25;95121.31;5029162;28;20279;-56
2022/04/21 00:25:46;;;;;;;17.20;14.27;;;;;;;9.11;47.61;95120.13;5029278;28;20198;-52
2022/04/21 00:28:13;;;;;;;19.17;14.40;;;;;;;8.73;49.51;95114.84;5029568;28;20655;-60
2022/04/21 00:30:40;;;;;;;17.65;13.73;;;;;;;8.33;50.50;95127.25;5029603;28;20209;-49
2022/04/21 00:33:07;;;;;;;16.55;13.75;;;;;;;8.51;49.72;95124.41;5030144;28;20193;-54
2022/04/21 00:35:34;;;;;;;17.95;13.88;;;;;;;8.90;47.94;95120.88;5028707;28;20672;-56
2022/04/21 00:38:01;;;;;;;17.75;13.15;;;;;;;8.95;47.57;95120.94;5028821;28;20208;-56
2022/04/21 00:40:29;;;;;;;16.77;13.43;;;;;;;8.71;48.45;95129.97;5028635;28;20196;-50
2022/04/21 00:42:57;;;;;;;18.13;13.75;;;;;;;8.15;50.09;95130.03;5029377;28;20205;-54
2022/04/21 00:45:25;;;;;;;17.92;13.73;;;;;;;8.39;48.74;95134.16;5029406;28;20197;-57
2022/04/21 00:47:55;;;;;;;17.75;13.70;;;;;;;8.34;48.78;95134.03;5028955;28;20224;-60
2022/04/21 00:50:25;;;;;;;17.70;13.52;;;;;;;8.18;49.56;95132.16;5028909;28;20213;-57
2022/04/21 00:52:55;;;;;;;18.77;14.38;;;;;;;8.16;49.01;95136.81;5029294;28;20235;-53
2022/04/21 00:55:23;;;;;;;16.88;14.10;;;;;;;8.46;48.61;95132.19;5029116;28;20641;-58
2022/04/21 00:57:52;;;;;;;16.95;13.15;;;;;;;8.71;48.40;95129.97;5028753;28;20189;-53
2022/04/21 01:00:20;;;;;;;17.55;13.73;;;;;;;8.52;48.52;95131.22;5028609;28;20254;-58
2022/04/21 01:02:47;;;;;;;20.15;13.85;;;;;;;8.55;48.74;95124.72;5029351;28;20193;-55
2022/04/21 01:05:20;;;;;;;17.52;13.88;;;;;;;8.09;49.12;95131.75;5028696;28;20283;-53
2022/04/21 01:07:47;;;;;;;17.60;13.68;;;;;;;8.47;48.38;95127.72;5028427;28;20305;-54
2022/04/21 01:10:15;;;;;;;17.05;13.25;;;;;;;8.47;48.61;95128.53;5031512;28;20185;-55
2022/04/21 01:12:43;;;;;;;19.02;14.15;;;;;;;8.47;48.05;95117.28;5033188;28;20296;-53
2022/04/21 01:15:10;;;;;;;18.15;12.73;;;;;;;8.36;48.25;95121.53;5032933;28;20196;-58
2022/04/21 01:17:39;;;;;;;17.25;13.70;;;;;;;8.55;48.06;95122.91;5032343;28;20724;-53
2022/04/21 01:20:08;;;;;;;20.15;13.95;;;;;;;8.44;47.82;95107.31;5032744;28;20231;-54
2022/04/21 01:22:36;;;;;;;18.00;13.55;;;;;;;7.87;49.69;95111.75;5032973;28;20177;-59
2022/04/21 01:25:03;;;;;;;17.98;13.70;;;;;;;8.61;48.57;95095.84;5032781;28;20568;-52
2022/04/21 01:27:33;;;;;;;18.00;13.35;;;;;;;8.17;48.55;95099.28;5032289;28;20228;-55
2022/04/21 01:30:02;;;;;;;19.17;13.18;;;;;;;7.72;49.66;95098.47;5032411;28;20580;-52
2022/04/21 01:32:31;;;;;;;18.50;13.75;;;;;;;8.36;48.88;95095.44;5032709;28;20213;-58
2022/04/21 01:34:58;;;;;;;16.05;13.20;;;;;;;8.59;47.62;95090.09;5032191;28;20201;-60
2022/04/21 01:42:56;;;;;;;16.70;13.23;;;;;;;8.72;47.41;95074.06;5032644;28;20703;-56
2022/04/21 01:45:22;;;;;;;16.52;13.05;;;;;;;8.37;48.36;95080.56;5032120;28;20331;-57
2022/04/21 01:47:50;;;;;;;16.75;13.25;;;;;;;8.04;48.43;95076.06;5031920;28;20221;-53
2022/04/21 01:50:16;;;;;;;19.30;13.85;;;;;;;8.12;48.79;95067.84;5032453;28;20205;-52
2022/04/21 01:52:43;;;;;;;19.30;13.90;;;;;;;8.09;48.97;95063.09;5032837;28;20205;-54
2022/04/21 01:55:11;;;;;;;18.17;13.50;;;;;;;7.98;48.86;95088.25;5032561;28;20201;-58
2022/04/21 01:57:38;;;;;;;20.58;14.43;;;;;;;7.70;50.05;95084.84;5031989;28;21099;-55
2022/04/21 02:00:07;;;;;;;20.33;14.65;;;;;;;8.14;49.60;95081.44;5030556;28;20201;-53
2022/04/21 02:02:34;;;;;;;19.83;14.70;;;;;;;8.51;48.60;95063.56;5032250;28;20197;-53
2022/04/21 02:05:01;;;;;;;17.92;14.85;;;;;;;8.60;48.42;95070.75;5031684;28;20184;-55
2022/04/21 02:07:28;;;;;;;21.80;14.40;;;;;;;8.72;47.48;95068.84;5032059;28;20551;-55
2022/04/21 02:09:55;;;;;;;20.60;15.02;;;;;;;8.73;47.72;95064.41;5031824;28;20633;-58
2022/04/21 02:12:24;;;;;;;18.67;14.52;;;;;;;8.79;47.59;95059.03;5032321;28;20211;-53
2022/04/21 02:14:54;;;;;;;19.15;15.00;;;;;;;8.78;47.21;95052.22;5031779;28;22337;-59
2022/04/21 02:17:21;;;;;;;17.80;13.55;;;;;;;8.85;46.95;95047.59;5032019;28;20750;-57
2022/04/21 02:19:48;;;;;;;19.38;14.90;;;;;;;8.75;47.45;95050.09;5031898;28;20206;-53
2022/04/21 02:22:15;;;;;;;19.25;13.52;;;;;;;8.65;47.33;95049.94;5030871;28;20735;-58
2022/04/21 02:24:42;;;;;;;18.98;14.27;;;;;;;8.73;47.88;95054.75;5031076;28;20219;-51
2022/04/21 02:27:09;;;;;;;17.92;14.73;;;;;;;8.72;47.56;95047.16;5032254;28;20215;-54
2022/04/21 02:29:36;;;;;;;20.00;14.82;;;;;;;8.93;47.17;95059.47;5030417;28;20743;-52
2022/04/21 02:32:04;;;;;;;20.73;16.00;;;;;;;8.40;48.07;95065.22;5031882;28;20221;-62
2022/04/21 02:34:31;;;;;;;18.65;14.65;;;;;;;8.20;49.07;95062.25;5031037;28;20193;-54
2022/04/21 02:36:58;;;;;;;17.92;14.82;;;;;;;8.58;47.93;95057.16;5032255;28;20613;-55
2022/04/21 02:39:26;;;;;;;20.30;14.88;;;;;;;8.03;48.82;95059.63;5031877;28;20209;-57
2022/04/21 02:41:53;;;;;;;20.35;15.73;;;;;;;7.76;49.98;95068.25;5031920;28;20313;-53
2022/04/21 02:44:20;;;;;;;21.75;16.30;;;;;;;8.05;49.36;95069.81;5031639;28;20222;-56
2022/04/21 02:46:47;;;;;;;22.02;17.50;;;;;;;7.94;49.58;95065.44;5031041;28;20201;-50
2022/04/21 02:49:15;;;;;;;30.08;23.02;;;;;;;7.49;50.60;95080.25;5031570;28;20283;-54
2022/04/21 02:51:43;;;;;;;36.53;25.48;;;;;;;7.83;49.66;95085.34;5031440;28;20288;-51
2022/04/21 02:59:42;;;;;;;29.77;23.67;;;;;;;8.54;47.43;95069.09;5030725;28;20279;-57
2022/04/21 03:02:09;;;;;;;25.73;20.65;;;;;;;8.54;47.65;95066.47;5031244;28;20193;-50
2022/04/21 03:04:36;;;;;;;22.08;17.58;;;;;;;8.51;47.42;95066.97;5029804;28;20190;-55
2022/04/21 03:07:03;;;;;;;39.90;35.83;;;;;;;8.44;48.05;95060.31;5030854;28;20593;-54
2022/04/21 03:09:32;;;;;;;26.35;19.45;;;;;;;7.47;50.50;95074.47;5030803;28;20216;-60
2022/04/21 03:12:06;;;;;;;25.80;19.13;;;;;;;7.68;49.36;95097.34;5031630;28;20209;-54
2022/04/21 03:14:38;;;;;;;25.33;19.17;;;;;;;7.10;51.77;95093.03;5030549;28;20198;-56
2022/04/21 03:17:06;;;;;;;28.05;20.55;;;;;;;7.35;50.91;95077.13;5030925;28;20759;-49
2022/04/21 03:19:34;;;;;;;25.98;19.27;;;;;;;7.30;50.68;95073.63;5030199;28;20267;-55
2022/04/21 03:24:48;;;;;;;26.92;17.58;;;;;;;7.13;50.92;95079.53;5030148;28;20228;-57
2022/04/21 03:27:15;;;;;;;28.38;18.88;;;;;;;7.09;51.02;95078.44;5031263;28;20185;-58
2022/04/21 03:29:43;;;;;;;27.10;18.65;;;;;;;7.27;51.05;95074.06;5030241;28;20240;-56
2022/04/21 03:32:13;;;;;;;25.65;18.15;;;;;;;7.32;50.51;95074.19;5029385;28;20749;-55
2022/04/21 03:34:42;;;;;;;26.00;17.65;;;;;;;7.29;50.78;95082.47;5029856;28;20668;-54
2022/04/21 03:37:15;;;;;;;22.90;16.48;;;;;;;7.17;50.33;95080.66;5030741;28;20201;-56
2022/04/21 03:39:43;;;;;;;24.08;16.95;;;;;;;7.55;49.84;95074.94;5029915;28;20711;-54
2022/04/21 03:42:25;;;;;;;25.67;18.67;;;;;;;7.86;48.88;95063.22;5030369;28;20193;-50
2022/04/21 03:44:52;;;;;;;27.73;19.05;;;;;;;7.93;48.89;95069.09;5030428;28;20263;-56
2022/04/21 03:47:20;;;;;;;24.10;18.92;;;;;;;7.98;48.64;95066.56;5030522;28;20642;-56
2022/04/21 03:49:47;;;;;;;32.25;22.60;;;;;;;7.79;49.53;95078.25;5028150;28;20220;-55
2022/04/21 03:52:14;;;;;;;29.15;21.02;;;;;;;7.95;48.92;95067.03;5029644;28;20205;-55
2022/04/21 03:54:41;;;;;;;29.27;21.73;;;;;;;8.10;48.70;95069.94;5029407;28;20287;-57
2022/04/21 03:57:08;;;;;;;28.88;21.98;;;;;;;8.00;49.97;95062.72;5030011;28;20201;-57
2022/04/21 03:59:35;;;;;;;31.63;23.25;;;;;;;8.23;50.09;95077.44;5029393;28;20193;-58
2022/04/21 04:02:04;;;;;;;31.45;23.15;;;;;;;8.58;48.38;95082.47;5029296;28;20785;-59
2022/04/21 04:04:34;;;;;;;33.13;25.85;;;;;;;8.28;48.60;95077.56;5028495;28;20284;-53
2022/04/21 04:12:36;;;;;;;35.80;26.08;;;;;;;8.57;48.21;95075.66;5029857;28;20236;-53
2022/04/21 04:15:05;;;;;;;36.25;25.92;;;;;;;8.64;48.18;95082.31;5029175;28;20201;-53
2022/04/21 04:17:32;;;;;;;38.35;27.63;;;;;;;8.61;47.90;95077.56;5029985;28;20220;-56
2022/04/21 04:20:00;;;;;;;36.15;27.13;;;;;;;8.71;47.76;95071.69;5027745;28;20255;-53
2022/04/21 04:22:27;;;;;;;38.38;28.05;;;;;;;8.69;48.01;95085.00;5029442;28;20274;-58
2022/04/21 04:24:56;;;;;;;44.60;29.00;;;;;;;8.60;48.27;95075.97;5028911;28;20201;-54
2022/04/21 04:27:25;;;;;;;40.58;29.25;;;;;;;8.72;48.33;95068.84;5029541;28;20267;-56
2022/04/21 04:29:52;;;;;;;46.03;31.30;;;;;;;8.57;50.56;95067.84;5028535;28;20255;-55
2022/04/21 04:32:20;;;;;;;43.63;31.63;;;;;;;8.59;52.75;95063.97;5029110;28;20221;-56
2022/04/21 04:34:47;;;;;;;40.03;28.55;;;;;;;8.97;50.23;95065.81;5029370;28;20299;-56
2022/04/21 04:37:14;;;;;;;37.65;28.15;;;;;;;8.98;48.74;95065.56;5029394;28;20679;-51
2022/04/21 04:39:41;;;;;;;35.30;25.98;;;;;;;9.12;49.11;95058.94;5029292;28;20192;-58
2022/04/21 04:42:17;;;;;;;33.67;25.70;;;;;;;9.15;48.48;95060.28;5029562;28;20247;-59
2022/04/21 04:44:44;;;;;;;31.95;23.67;;;;;;;9.37;48.36;95061.09;5028670;28;20664;-56
2022/04/21 04:47:11;;;;;;;29.63;21.98;;;;;;;9.39;47.71;95059.03;5029367;28;20197;-58
2022/04/21 04:49:39;;;;;;;26.75;21.23;;;;;;;8.76;48.71;95075.16;5027165;28;20303;-53
2022/04/21 04:52:06;;;;;;;28.05;21.65;;;;;;;9.13;48.06;95075.44;5029390;28;20189;-60
2022/04/21 04:54:33;;;;;;;29.20;22.15;;;;;;;9.36;48.19;95077.03;5029117;28;20197;-53
2022/04/21 04:57:00;;;;;;;60.47;44.70;;;;;;;9.23;48.16;95084.19;5029124;28;20672;-53
2022/04/21 04:59:29;;;;;;;24.85;18.80;;;;;;;8.64;48.33;95087.53;5029004;28;20636;-56
2022/04/21 05:01:56;;;;;;;20.67;15.93;;;;;;;9.05;48.28;95084.47;5029424;28;20581;-56
2022/04/21 05:04:24;;;;;;;17.20;13.50;;;;;;;9.23;46.39;95081.56;5029336;28;20653;-57
2022/04/21 05:06:54;;;;;;;17.83;13.50;;;;;;;9.44;46.87;95089.69;5029228;28;20205;-53
2022/04/21 05:09:23;;;;;;;22.65;14.82;;;;;;;9.50;47.27;95070.41;5028432;28;20232;-54
2022/04/21 05:12:01;;;;;;;29.23;24.88;;;;;;;9.67;47.45;95078.97;5028652;28;20259;-56
2022/04/21 05:14:29;;;;;;;20.52;15.40;;;;;;;9.90;46.73;95076.06;5029528;28;20236;-58
2022/04/21 05:16:56;;;;;;;32.47;24.73;;;;;;;10.05;46.57;95082.25;5029072;28;20233;-53
2022/04/21 05:19:23;;;;;;;19.60;14.82;;;;;;;9.47;46.08;95091.81;5029260;28;20744;-57
2022/04/21 05:21:51;;;;;;;20.98;14.90;;;;;;;9.44;46.70;95097.53;5028560;28;20193;-58
2022/04/21 05:24:19;;;;;;;23.92;15.88;;;;;;;8.96;47.15;95106.81;5029320;28;20208;-56
2022/04/21 05:26:46;;;;;;;22.50;16.83;;;;;;;9.00;48.19;95105.31;5028790;28;20208;-56
2022/04/21 05:32:02;;;;;;;26.35;18.88;;;;;;;9.65;46.75;95104.59;5029264;28;20181;-56
2022/04/21 05:34:31;;;;;;;29.15;20.08;;;;;;;10.07;46.27;95090.66;5028866;28;20199;-54
2022/04/21 05:36:59;;;;;;;27.98;21.30;;;;;;;10.25;45.95;95094.00;5028754;28;20193;-56
2022/04/21 05:39:27;;;;;;;30.05;23.17;;;;;;;10.29;46.06;95101.13;5028701;28;20766;-55
2022/04/21 05:41:57;;;;;;;31.67;21.58;;;;;;;10.46;45.71;95096.53;5028795;28;20189;-55
2022/04/21 05:44:25;;;;;;;27.42;21.08;;;;;;;10.61;46.04;95094.06;5028503;28;20228;-55
2022/04/21 05:46:52;;;;;;;26.30;21.15;;;;;;;10.46;46.04;95091.31;5026395;28;20642;-56
2022/04/21 05:49:20;;;;;;;29.02;21.73;;;;;;;10.47;46.14;95085.03;5026147;28;20283;-48
2022/04/21 05:51:48;;;;;;;29.55;21.77;;;;;;;10.34;46.45;95082.81;5026231;28;20637;-49
2022/04/21 05:54:15;;;;;;;28.48;21.42;;;;;;;10.20;47.01;95084.25;5026831;28;20200;-48
2022/04/21 05:56:42;;;;;;;29.25;22.27;;;;;;;10.29;46.44;95080.16;5026770;28;20779;-52
2022/04/21 05:59:10;;;;;;;31.45;24.73;;;;;;;10.44;46.65;95076.88;5030590;28;20259;-58
2022/04/21 06:01:37;;;;;;;34.15;24.15;;;;;;;10.65;46.68;95058.44;5032515;28;20292;-59
2022/04/21 06:04:04;;;;;;;34.50;25.13;;;;;;;10.85;46.22;95074.31;5032721;28;20223;-52
2022/04/21 06:06:31;;;;;;;34.00;25.50;;;;;;;10.91;45.72;95072.53;5032314;28;20205;-60
2022/04/21 06:08:58;;;;;;;40.13;27.45;;;;;;;11.00;45.68;95071.00;5031880;28;20263;-56
2022/04/21 06:11:25;;;;;;;40.90;27.02;;;;;;;10.82;46.37;95071.41;5031829;28;20200;-63
2022/04/21 06:13:52;;;;;;;38.08;27.27;;;;;;;11.06;46.22;95073.38;5032137;28;20215;-56
2022/04/21 06:16:19;;;;;;;36.88;27.73;;;;;;;11.06;46.25;95069.97;5031814;28;20193;-54
2022/04/21 06:18:46;;;;;;;39.08;27.83;;;;;;;11.30;45.41;95073.78;5031886;28;20240;-55
2022/04/21 06:21:13;;;;;;;37.30;27.20;;;;;;;11.30;45.60;95075.59;5031922;28;20217;-55
2022/04/21 06:23:40;;;;;;;38.13;28.42;;;;;;;11.13;46.14;95081.81;5032377;28;20327;-56
2022/04/21 06:26:07;;;;;;;37.58;27.10;;;;;;;10.91;45.37;95073.28;5031898;28;20197;-52
2022/04/21 06:28:34;;;;;;;40.00;29.05;;;;;;;11.19;45.00;95080.81;5030250;28;20714;-54
2022/04/21 06:31:01;;;;;;;43.15;29.17;;;;;;;11.41;45.09;95074.63;5032006;28;20213;-55
2022/04/21 06:33:32;;;;;;;39.03;27.63;;;;;;;11.16;46.57;95060.34;5032426;28;20196;-54
2022/04/21 06:36:03;;;;;;;35.15;25.52;;;;;;;11.19;46.16;95072.94;5031440;28;20280;-51
2022/04/21 06:38:30;;;;;;;34.43;26.60;;;;;;;11.45;46.20;95065.19;5031924;28;20684;-50
2022/04/21 06:40:57;;;;;;;35.08;25.70;;;;;;;11.40;46.59;95075.66;5031912;28;20475;-53
2022/04/21 06:48:57;;;;;;;33.28;23.58;;;;;;;12.08;44.93;95062.25;5031525;28;20475;-51
2022/04/21 06:51:27;;;;;;;28.77;22.48;;;;;;;11.81;44.07;95072.16;5031566;28;20186;-60
2022/04/21 06:53:55;;;;;;;28.42;22.17;;;;;;;11.58;44.29;95062.91;5032610;28;20213;-53
2022/04/21 06:56:21;;;;;;;29.47;21.90;;;;;;;11.97;43.76;95058.06;5030910;28;20189;-54
2022/04/21 06:58:53;;;;;;;28.17;21.77;;;;;;;11.91;44.56;95064.34;5031114;28;20534;-60
2022/04/21 07:01:20;;;;;;;32.13;24.33;;;;;;;11.97;44.14;95056.19;5031146;28;20981;-53
2022/04/21 07:03:47;;;;;;;28.05;23.13;;;;;;;12.29;44.09;95063.88;5031549;28;20482;-57
2022/04/21 07:06:13;;;;;;;25.55;20.45;;;;;;;12.14;44.06;95061.22;5030722;28;20258;-55
2022/04/21 07:08:40;;;;;;;26.15;20.98;;;;;;;12.31;43.68;95061.78;5031061;28;20193;-58
2022/04/21 07:11:07;;;;;;;24.07;20.10;;;;;;;12.15;43.59;95058.34;5030826;28;20192;-49
2022/04/21 07:13:34;;;;;;;26.50;21.23;;;;;;;12.39;43.54;95063.09;5031392;28;21054;-49
2022/04/21 07:16:01;;;;;;;29.00;20.33;;;;;;;12.52;43.30;95068.63;5030311;28;20450;-52
2022/04/21 07:18:30;;;;;;;27.10;21.48;;;;;;;12.60;42.69;95068.09;5030541;28;20567;-56
2022/04/21 07:20:57;;;;;;;24.73;19.73;;;;;;;12.46;42.29;95061.00;5030501;28;20193;-58
2022/04/21 07:23:24;;;;;;;24.77;20.43;;;;;;;12.77;42.04;95059.94;5031353;28;20192;-60
2022/04/21 07:25:51;;;;;;;23.17;18.53;;;;;;;11.68;43.55;95077.91;5030173;28;20424;-56
2022/04/21 07:28:18;;;;;;;24.83;19.03;;;;;;;12.23;42.38;95059.66;5030619;28;20440;-56
2022/04/21 07:30:46;;;;;;;25.97;20.10;;;;;;;12.71;42.31;95077.56;5028496;28;21053;-59
2022/04/21 07:33:17;;;;;;;21.43;17.87;;;;;;;12.93;42.00;95085.97;5030741;28;20444;-55
2022/04/21 07:35:45;;;;;;;21.53;17.70;;;;;;;12.91;42.18;95082.81;5030232;28;20885;-51
2022/04/21 07:38:13;;;;;;;20.80;16.87;;;;;;;13.04;41.74;95082.31;5030790;28;20482;-55
2022/04/21 07:40:42;;;;;;;19.70;16.23;;;;;;;13.11;41.15;95087.28;5029873;28;20448;-56
2022/04/21 07:43:09;;;;;;;23.37;17.03;;;;;;;13.30;40.69;95084.88;5030553;28;20565;-53
2022/04/21 07:45:44;;;;;;;20.63;13.97;;;;;;;12.82;39.39;95079.13;5029850;28;20885;-55
2022/04/21 07:48:12;;;;;;;18.23;14.93;;;;;;;12.36;40.80;95082.00;5030176;28;20805;-57
2022/04/21 07:50:39;;;;;;;19.97;15.13;;;;;;;13.19;40.71;95077.00;5029734;28;20566;-56
2022/04/21 07:53:23;;;;;;;18.37;15.37;;;;;;;13.58;40.39;95071.88;5030606;28;20496;-57
2022/04/21 07:55:50;;;;;;;20.53;14.27;;;;;;;13.79;39.23;95077.84;5030176;28;20458;-62
2022/04/21 07:58:18;;;;;;;17.67;14.67;;;;;;;14.19;39.69;95070.53;5030430;28;20535;-58
2022/04/21 08:00:44;;;;;;;20.47;15.80;;;;;;;14.25;39.28;95071.25;5029733;28;20450;-56
2022/04/21 08:03:12;;;;;;;20.40;16.07;;;;;;;14.50;39.13;95073.78;5030444;28;20450;-54
2022/04/21 08:05:41;;;;;;;17.10;14.23;;;;;;;14.52;38.60;95070.88;5030203;28;20448;-56
2022/04/21 08:08:11;;;;;;;15.50;13.73;;;;;;;13.65;37.67;95077.63;5029953;28;20458;-57
2022/04/21 08:10:39;;;;;;;17.57;13.73;;;;;;;13.80;38.87;95055.72;5029762;28;20479;-53
2022/04/21 08:13:06;;;;;;;18.60;14.30;;;;;;;14.52;38.55;95061.13;5030381;28;20456;-61
2022/04/21 08:15:35;;;;;;;18.90;15.00;;;;;;;14.66;38.49;95055.97;5029172;28;20440;-57
2022/04/21 08:18:05;;;;;;;16.63;13.07;;;;;;;14.57;38.33;95074.25;5029525;28;20472;-60
2022/04/21 08:20:36;;;;;;;17.43;13.57;;;;;;;14.68;37.81;95070.47;5029042;28;20444;-56
2022/04/21 08:23:03;;;;;;;16.33;13.90;;;;;;;15.04;38.00;95063.81;5028796;28;20916;-53
2022/04/21 08:34:18;;;;;;;24.27;16.27;;;;;;;14.59;38.36;95066.06;5029495;28;20443;-58
2022/04/21 08:36:51;;;;;;;20.37;16.10;;;;;;;14.59;37.36;95064.22;5029447;28;20451;-58
2022/04/21 08:39:19;;;;;;;26.57;17.73;;;;;;;14.24;37.23;95059.16;5029248;28;20435;-57
2022/04/21 08:41:49;;;;;;;25.87;18.70;;;;;;;14.67;36.74;95068.88;5028853;28;20526;-58
2022/04/21 08:44:19;;;;;;;19.97;17.40;;;;;;;14.97;36.84;95058.09;5028885;28;20831;-57
2022/04/21 08:46:48;;;;;;;24.57;18.37;;;;;;;14.63;36.66;95062.59;5028809;28;21286;-53
2022/04/21 08:49:18;;;;;;;26.30;18.70;;;;;;;14.75;36.99;95068.31;5029161;28;20481;-59
2022/04/21 08:51:45;;;;;;;27.33;19.17;;;;;;;14.95;37.33;95065.50;5028681;28;20519;-59
2022/04/21 08:54:12;;;;;;;23.87;19.90;;;;;;;15.38;36.96;95057.69;5029315;28;20451;-52
2022/04/21 08:56:39;;;;;;;29.60;21.10;;;;;;;15.61;37.57;95054.25;5029120;28;20519;-61
2022/04/21 08:59:07;;;;;;;25.70;20.43;;;;;;;15.59;37.25;95043.19;5029419;28;20444;-50
2022/04/21 09:01:34;;;;;;;26.20;20.60;;;;;;;15.54;37.41;95044.06;5028530;28;20448;-55
2022/04/21 09:04:01;;;;;;;24.37;19.40;;;;;;;15.76;37.71;95032.94;5029309;28;20439;-56
2022/04/21 09:06:29;;;;;;;27.67;20.60;;;;;;;15.81;37.31;95040.81;5029067;28;20473;-54
2022/04/21 09:09:21;;;;;;;27.53;20.47;;;;;;;15.70;36.81;95034.06;5029240;28;20518;-56
2022/04/21 09:11:56;;;;;;;29.83;19.43;;;;;;;15.49;36.57;95033.53;5028483;28;20452;-54
2022/04/21 09:14:23;;;;;;;27.73;21.17;;;;;;;15.61;37.34;95046.34;5029230;28;20463;-61
2022/04/21 09:16:50;;;;;;;24.80;19.20;;;;;;;15.05;37.11;95039.00;5028436;28;20429;-59
2022/04/21 09:19:18;;;;;;;22.77;18.27;;;;;;;14.83;36.17;95030.78;5028850;28;20959;-57
2022/04/21 09:21:44;;;;;;;26.67;19.40;;;;;;;14.76;37.58;95029.53;5028879;28;20443;-53
2022/04/21 09:24:22;;;;;;;28.97;21.50;;;;;;;15.65;38.23;95026.22;5029093;28;20432;-51
2022/04/21 09:26:51;;;;;;;28.57;21.90;;;;;;;15.53;37.95;95033.78;5028902;28;20466;-58
2022/04/21 09:29:24;;;;;;;24.53;18.37;;;;;;;15.46;37.35;95038.59;5028656;28;20435;-56
2022/04/21 09:32:09;;;;;;;21.77;16.87;;;;;;;15.21;36.80;95040.44;5032158;28;20478;-60
2022/04/21 09:34:37;;;;;;;26.13;17.40;;;;;;;15.56;36.15;95034.00;5032499;28;20490;-57
2022/04/21 09:37:06;;;;;;;25.50;18.33;;;;;;;15.21;36.78;95032.50;5033064;28;20479;-58
2022/04/21 09:39:40;;;;;;;23.03;18.37;;;;;;;15.58;37.00;95037.16;5032055;28;21283;-54
2022/04/21 09:42:07;;;;;;;25.53;18.00;;;;;;;15.85;38.08;95041.81;5032787;28;20735;-56
2022/04/21 09:47:30;;;;;;;21.30;17.50;;;;;;;16.09;36.70;95037.25;5032708;28;20992;-57
2022/04/21 09:50:09;;;;;;;20.10;17.40;;;;;;;16.19;36.69;95032.63;5031988;28;20462;-55
2022/04/21 09:52:51;;;;;;;26.83;17.60;;;;;;;16.18;36.13;95031.03;5032429;28;20515;-55
2022/04/21 09:55:30;;;;;;;23.07;17.57;;;;;;;15.31;36.62;95036.09;5032211;28;20431;-54
2022/04/21 09:58:12;;;;;;;21.73;17.00;;;;;;;14.88;37.53;95033.38;5032812;28;20973;-54
2022/04/21 10:00:41;;;;;;;25.23;18.33;;;;;;;15.55;37.87;95036.88;5031781;28;21008;-58
2022/04/21 10:03:10;;;;;;;27.77;20.43;;;;;;;15.94;37.62;95029.53;5032258;28;20436;-57
2022/04/21 10:05:42;;;;;;;22.50;17.47;;;;;;;16.11;36.88;95021.91;5032137;28;20450;-62
2022/04/21 10:08:11;;;;;;;25.90;17.40;;;;;;;16.27;36.71;95027.75;5032679;28;20451;-48
2022/04/21 10:10:46;;;;;;;24.90;18.83;;;;;;;16.43;37.41;95016.66;5031697;28;20582;-59
2022/04/21 10:13:13;;;;;;;24.43;18.57;;;;;;;16.59;35.93;95015.38;5032565;28;20505;-56
2022/04/21 10:15:42;;;;;;;28.97;18.97;;;;;;;16.17;37.43;95015.47;5031923;28;20452;-60
2022/04/21 10:18:13;;;;;;;26.80;19.67;;;;;;;16.75;36.42;95014.03;5031593;28;20482;-57
2022/04/21 10:20:41;;;;;;;23.47;19.00;;;;;;;16.53;36.57;95000.63;5031372;28;20534;-55
2022/04/21 10:23:18;;;;;;;19.93;16.67;;;;;;;16.60;37.47;95003.72;5032243;28;20824;-57
2022/04/21 10:25:57;;;;;;;19.57;15.83;;;;;;;16.37;36.85;95006.47;5031402;28;21301;-56
2022/04/21 10:28:42;;;;;;;21.03;16.03;;;;;;;16.70;36.90;95006.19;5031792;28;20440;-60
2022/04/21 10:31:30;;;;;;;15.67;13.70;;;;;;;16.81;36.83;94997.00;5031155;28;20491;-59
2022/04/21 10:34:07;;;;;;;15.67;13.50;;;;;;;16.39;36.62;95010.38;5031763;28;20444;-58
2022/04/21 10:36:47;;;;;;;15.27;13.67;;;;;;;16.36;36.56;95007.50;5031317;28;20478;-53
2022/04/21 10:39:17;;;;;;;19.07;13.87;;;;;;;16.72;37.01;95005.88;5031215;28;20454;-60
2022/04/21 10:41:45;;;;;;;17.93;13.27;;;;;;;16.98;36.18;95002.53;5030999;28;20897;-57
2022/04/21 10:44:13;;;;;;;18.03;13.40;;;;;;;16.89;36.65;95006.94;5031866;28;20482;-55
2022/04/21 10:46:41;;;;;;;16.60;13.53;;;;;;;16.71;36.14;94986.59;5031456;28;20443;-54
2022/04/21 10:49:54;;;;;;;20.43;14.87;;;;;;;16.83;36.59;95000.16;5031194;28;20439;-55
2022/04/21 10:57:50;;;;;;;16.13;13.77;;;;;;;16.77;36.85;94990.72;5031703;28;20424;-58
2022/04/21 11:00:31;;;;;;;17.13;14.10;;;;;;;16.61;36.70;94997.34;5030933;28;20432;-54
2022/04/21 11:03:06;;;;;;;17.20;15.33;;;;;;;17.02;36.54;94998.19;5031140;28;20966;-50
2022/04/21 11:05:36;;;;;;;19.17;15.03;;;;;;;16.99;37.12;94998.78;5030698;28;20432;-54
2022/04/21 11:08:11;;;;;;;21.17;14.70;;;;;;;17.43;36.87;94984.19;5031114;28;20946;-54
2022/04/21 11:10:38;;;;;;;18.30;14.90;;;;;;;17.80;37.08;94986.63;5030617;28;20482;-56
2022/04/21 11:13:06;;;;;;;16.93;14.17;;;;;;;17.51;35.34;94988.84;5031322;28;20885;-54
2022/04/21 11:15:36;;;;;;;16.07;14.10;;;;;;;17.93;35.28;94985.81;5031033;28;20483;-57
2022/04/21 11:18:18;;;;;;;16.37;14.13;;;;;;;18.11;36.17;94983.03;5030675;28;20476;-53
2022/04/21 11:20:49;;;;;;;17.07;12.80;;;;;;;18.27;35.95;94986.09;5030449;28;21023;-52
2022/04/21 11:23:32;;;;;;;20.63;14.43;;;;;;;18.87;34.74;94984.66;5030785;28;20826;-59
2022/04/21 11:26:04;;;;;;;16.37;13.60;;;;;;;18.85;33.56;94991.38;5030300;28;20455;-56
2022/04/21 11:28:32;;;;;;;15.33;13.00;;;;;;;18.76;33.49;94983.34;5030563;28;20435;-55
2022/04/21 11:31:01;;;;;;;17.90;14.70;;;;;;;19.39;33.77;94991.00;5030001;28;20491;-60
2022/04/21 11:33:30;;;;;;;16.30;13.43;;;;;;;19.16;33.12;94973.53;5030827;28;20452;-52
2022/04/21 11:36:04;;;;;;;19.87;13.97;;;;;;;19.30;34.49;94973.44;5030197;28;20439;-58
2022/04/21 11:38:40;;;;;;;17.43;12.83;;;;;;;19.03;33.68;94969.88;5030466;28;20452;-56
2022/04/21 11:41:09;;;;;;;16.63;13.63;;;;;;;18.83;34.21;94973.06;5030037;28;20451;-57
2022/04/21 11:43:44;;;;;;;17.00;13.20;;;;;;;18.45;34.15;94971.91;5029977;28;20521;-59
2022/04/21 11:46:12;;;;;;;15.50;13.60;;;;;;;18.26;35.24;94979.25;5030423;28;20478;-55
2022/04/21 11:48:41;;;;;;;16.07;12.60;;;;;;;18.50;35.78;94974.44;5028078;28;20859;-54
2022/04/21 11:51:10;;;;;;;14.73;12.87;;;;;;;19.01;34.79;94958.78;5048690;28;20912;-53
2022/04/21 11:53:42;;;;;;;15.70;11.50;;;;;;;19.83;33.56;94958.13;5048545;28;20789;-58
2022/04/21 11:56:11;;;;;;;16.43;11.93;;;;;;;20.22;33.62;94944.69;5049049;28;20443;-57
2022/04/21 11:58:39;;;;;;;12.33;11.03;;;;;;;20.00;31.87;94947.47;5050091;28;20447;-59
2022/04/21 12:06:51;;;;;;;12.63;9.60;;;;;;;21.55;30.65;94932.72;5049018;28;20451;-60
2022/04/21 12:09:22;;;;;;;16.03;10.47;;;;;;;21.86;29.84;94925.94;5049496;28;20446;-55
2022/04/21 12:11:53;;;;;;;12.60;10.03;;;;;;;21.93;29.98;94928.84;5048627;28;20489;-54
2022/04/21 12:14:21;;;;;;;16.20;11.10;;;;;;;20.97;31.24;94928.88;5049834;28;20534;-57
2022/04/21 12:16:53;;;;;;;15.47;11.70;;;;;;;20.24;30.65;94931.84;5048664;28;20430;-54
2022/04/21 12:19:32;;;;;;;11.40;9.97;;;;;;;19.34;32.48;94931.91;5049632;28;20883;-57
2022/04/21 12:22:03;;;;;;;13.57;10.23;;;;;;;19.74;32.97;94928.84;5049221;28;20504;-57
2022/04/21 12:24:38;;;;;;;14.67;11.03;;;;;;;20.03;32.98;94937.03;5048391;28;20454;-61